sensor_id;sensor_type;location;lat;lon;timestamp;temperature;humidity
9776;DHT22;4927;52.472;13.108;2023-03-23T00:00:57;11.40;99.90
9776;DHT22;4927;52.472;13.108;2023-03-23T00:01:58;11.40;99.90
9776;DHT22;4927;52.472;13.108;2023-03-23T00:03:00;11.40;99.90
9776;DHT22;4927;52.472;13.108;2023-03-23T00:04:02;11.40;99.90
9776;DHT22;4927;52.472;13.108;2023-03-23T00:05:05;11.30;99.90
9776;DHT22;4927;52.472;13.108;2023-03-23T00:06:08;11.30;99.90
9776;DHT22;4927;52.472;13.108;2023-03-23T00:07:10;11.30;99.90
9776;DHT22;4927;52.472;13.108;2023-03-23T00:08:12;11.30;99.90
9776;DHT22;4927;52.472;13.108;2023-03-23T00:09:14;11.30;99.90
9776;DHT22;4927;52.472;13.108;2023-03-23T00:10:16;11.20;99.90
9776;DHT22;4927;52.472;13.108;2023-03-23T00:11:20;11.20;99.90
9776;DHT22;4927;52.472;13.108;2023-03-23T00:12:21;11.20;99.90
9776;DHT22;4927;52.472;13.108;2023-03-23T00:13:24;11.10;99.90
9776;DHT22;4927;52.472;13.108;2023-03-23T00:14:25;11.10;99.90
9776;DHT22;4927;52.472;13.108;2023-03-23T00:15:28;11.10;99.90
9776;DHT22;4927;52.472;13.108;2023-03-23T00:16:30;11.10;99.90
9776;DHT22;4927;52.472;13.108;2023-03-23T00:17:32;11.10;99.90
9776;DHT22;4927;52.472;13.108;2023-03-23T00:18:34;11.10;99.90
9776;DHT22;4927;52.472;13.108;2023-03-23T00:19:37;11.00;99.90
9776;DHT22;4927;52.472;13.108;2023-03-23T00:20:38;11.00;99.90
9776;DHT22;4927;52.472;13.108;2023-03-23T00:21:40;11.00;99.90
9776;DHT22;4927;52.472;13.108;2023-03-23T00:22:42;11.00;99.90
9776;DHT22;4927;52.472;13.108;2023-03-23T00:23:44;11.00;99.90
9776;DHT22;4927;52.472;13.108;2023-03-23T00:24:46;10.90;99.90
9776;DHT22;4927;52.472;13.108;2023-03-23T00:25:50;10.90;99.90
9776;DHT22;4927;52.472;13.108;2023-03-23T00:26:50;10.90;99.90
9776;DHT22;4927;52.472;13.108;2023-03-23T00:27:52;10.90;99.90
9776;DHT22;4927;52.472;13.108;2023-03-23T00:28:54;10.90;99.90
9776;DHT22;4927;52.472;13.108;2023-03-23T00:29:55;10.90;99.90
9776;DHT22;4927;52.472;13.108;2023-03-23T00:31:00;10.90;99.90
9776;DHT22;4927;52.472;13.108;2023-03-23T00:32:01;10.80;99.90
9776;DHT22;4927;52.472;13.108;2023-03-23T00:33:03;10.80;99.90
9776;DHT22;4927;52.472;13.108;2023-03-23T00:34:04;10.80;99.90
9776;DHT22;4927;52.472;13.108;2023-03-23T00:35:06;10.80;99.90
9776;DHT22;4927;52.472;13.108;2023-03-23T00:36:09;10.80;99.90
9776;DHT22;4927;52.472;13.108;2023-03-23T00:37:10;10.80;99.90
9776;DHT22;4927;52.472;13.108;2023-03-23T00:38:12;10.80;99.90
9776;DHT22;4927;52.472;13.108;2023-03-23T00:39:14;10.80;99.90
9776;DHT22;4927;52.472;13.108;2023-03-23T00:40:15;10.80;99.90
9776;DHT22;4927;52.472;13.108;2023-03-23T00:41:18;10.80;99.90
9776;DHT22;4927;52.472;13.108;2023-03-23T00:42:19;10.80;99.90
9776;DHT22;4927;52.472;13.108;2023-03-23T00:43:21;10.70;99.90
9776;DHT22;4927;52.472;13.108;2023-03-23T00:44:23;10.70;99.90
9776;DHT22;4927;52.472;13.108;2023-03-23T00:45:25;10.70;99.90
9776;DHT22;4927;52.472;13.108;2023-03-23T00:46:27;10.70;99.90
9776;DHT22;4927;52.472;13.108;2023-03-23T00:47:29;10.70;99.90
9776;DHT22;4927;52.472;13.108;2023-03-23T00:48:32;10.70;99.90
9776;DHT22;4927;52.472;13.108;2023-03-23T00:49:34;10.70;99.90
9776;DHT22;4927;52.472;13.108;2023-03-23T00:50:36;10.70;99.90
9776;DHT22;4927;52.472;13.108;2023-03-23T00:51:38;10.60;99.90
9776;DHT22;4927;52.472;13.108;2023-03-23T00:52:40;10.60;99.90
9776;DHT22;4927;52.472;13.108;2023-03-23T00:53:41;10.60;99.90
9776;DHT22;4927;52.472;13.108;2023-03-23T00:54:43;10.60;99.90
9776;DHT22;4927;52.472;13.108;2023-03-23T00:55:45;10.60;99.90
9776;DHT22;4927;52.472;13.108;2023-03-23T00:56:46;10.60;99.90
9776;DHT22;4927;52.472;13.108;2023-03-23T00:57:48;10.60;99.90
9776;DHT22;4927;52.472;13.108;2023-03-23T00:58:49;10.60;99.90
9776;DHT22;4927;52.472;13.108;2023-03-23T00:59:52;10.60;99.90
9776;DHT22;4927;52.472;13.108;2023-03-23T01:00:54;10.60;99.90
9776;DHT22;4927;52.472;13.108;2023-03-23T01:01:57;10.60;99.90
9776;DHT22;4927;52.472;13.108;2023-03-23T01:02:59;10.60;99.90
9776;DHT22;4927;52.472;13.108;2023-03-23T01:04:01;10.50;99.90
9776;DHT22;4927;52.472;13.108;2023-03-23T01:05:03;10.50;99.90
9776;DHT22;4927;52.472;13.108;2023-03-23T01:06:08;10.50;99.90
9776;DHT22;4927;52.472;13.108;2023-03-23T01:07:09;10.50;99.90
9776;DHT22;4927;52.472;13.108;2023-03-23T01:08:10;10.50;99.90
9776;DHT22;4927;52.472;13.108;2023-03-23T01:09:14;10.50;99.90
9776;DHT22;4927;52.472;13.108;2023-03-23T01:10:16;10.50;99.90
9776;DHT22;4927;52.472;13.108;2023-03-23T01:11:18;10.50;99.90
9776;DHT22;4927;52.472;13.108;2023-03-23T01:12:20;10.50;99.90
9776;DHT22;4927;52.472;13.108;2023-03-23T01:13:22;10.50;99.90
9776;DHT22;4927;52.472;13.108;2023-03-23T01:14:25;10.50;99.90
9776;DHT22;4927;52.472;13.108;2023-03-23T01:15:27;10.40;99.90
9776;DHT22;4927;52.472;13.108;2023-03-23T01:16:29;10.40;99.90
9776;DHT22;4927;52.472;13.108;2023-03-23T01:17:30;10.40;99.90
9776;DHT22;4927;52.472;13.108;2023-03-23T01:18:33;10.40;99.90
9776;DHT22;4927;52.472;13.108;2023-03-23T01:19:34;10.40;99.90
9776;DHT22;4927;52.472;13.108;2023-03-23T01:20:37;10.40;99.90
9776;DHT22;4927;52.472;13.108;2023-03-23T01:21:39;10.40;99.90
9776;DHT22;4927;52.472;13.108;2023-03-23T01:22:41;10.40;99.90
9776;DHT22;4927;52.472;13.108;2023-03-23T01:23:43;10.40;99.90
9776;DHT22;4927;52.472;13.108;2023-03-23T01:24:45;10.40;99.90
9776;DHT22;4927;52.472;13.108;2023-03-23T01:25:46;10.40;99.90
9776;DHT22;4927;52.472;13.108;2023-03-23T01:26:48;10.40;99.90
9776;DHT22;4927;52.472;13.108;2023-03-23T01:27:50;10.40;99.90
9776;DHT22;4927;52.472;13.108;2023-03-23T01:28:53;10.40;99.90
9776;DHT22;4927;52.472;13.108;2023-03-23T01:29:55;10.40;99.90
9776;DHT22;4927;52.472;13.108;2023-03-23T01:31:00;10.40;99.90
9776;DHT22;4927;52.472;13.108;2023-03-23T01:32:02;10.30;99.90
9776;DHT22;4927;52.472;13.108;2023-03-23T01:33:03;10.30;99.90
9776;DHT22;4927;52.472;13.108;2023-03-23T01:34:05;10.40;99.90
9776;DHT22;4927;52.472;13.108;2023-03-23T01:35:07;10.30;99.90
9776;DHT22;4927;52.472;13.108;2023-03-23T01:36:11;10.40;99.90
9776;DHT22;4927;52.472;13.108;2023-03-23T01:37:12;10.40;99.90
9776;DHT22;4927;52.472;13.108;2023-03-23T01:38:13;10.30;99.90
9776;DHT22;4927;52.472;13.108;2023-03-23T01:39:15;10.30;99.90
9776;DHT22;4927;52.472;13.108;2023-03-23T01:40:17;10.40;99.90
9776;DHT22;4927;52.472;13.108;2023-03-23T01:41:19;10.30;99.90
9776;DHT22;4927;52.472;13.108;2023-03-23T01:42:22;10.40;99.90
9776;DHT22;4927;52.472;13.108;2023-03-23T01:43:25;10.40;99.90
9776;DHT22;4927;52.472;13.108;2023-03-23T01:46:19;10.40;99.90
9776;DHT22;4927;52.472;13.108;2023-03-23T01:47:21;10.40;99.90
9776;DHT22;4927;52.472;13.108;2023-03-23T01:48:24;10.40;99.90
9776;DHT22;4927;52.472;13.108;2023-03-23T01:49:29;10.40;99.90
9776;DHT22;4927;52.472;13.108;2023-03-23T01:50:30;10.40;99.90
9776;DHT22;4927;52.472;13.108;2023-03-23T01:51:31;10.40;99.90
9776;DHT22;4927;52.472;13.108;2023-03-23T01:52:33;10.40;99.90
9776;DHT22;4927;52.472;13.108;2023-03-23T01:53:37;10.40;99.90
9776;DHT22;4927;52.472;13.108;2023-03-23T01:54:38;10.40;99.90
9776;DHT22;4927;52.472;13.108;2023-03-23T01:55:42;10.50;99.90
9776;DHT22;4927;52.472;13.108;2023-03-23T01:56:45;10.50;99.90
9776;DHT22;4927;52.472;13.108;2023-03-23T01:57:45;10.50;99.90
9776;DHT22;4927;52.472;13.108;2023-03-23T01:58:47;10.50;99.90
9776;DHT22;4927;52.472;13.108;2023-03-23T01:59:50;10.50;99.90
9776;DHT22;4927;52.472;13.108;2023-03-23T02:00:59;10.50;99.90
9776;DHT22;4927;52.472;13.108;2023-03-23T02:02:00;10.50;99.90
9776;DHT22;4927;52.472;13.108;2023-03-23T02:03:02;10.50;99.90
9776;DHT22;4927;52.472;13.108;2023-03-23T02:04:04;10.50;99.90
9776;DHT22;4927;52.472;13.108;2023-03-23T02:05:08;10.50;99.90
9776;DHT22;4927;52.472;13.108;2023-03-23T02:06:07;10.50;99.90
9776;DHT22;4927;52.472;13.108;2023-03-23T02:07:09;10.50;99.90
9776;DHT22;4927;52.472;13.108;2023-03-23T02:08:11;10.50;99.90
9776;DHT22;4927;52.472;13.108;2023-03-23T02:09:13;10.60;99.90
9776;DHT22;4927;52.472;13.108;2023-03-23T02:10:15;10.60;99.90
9776;DHT22;4927;52.472;13.108;2023-03-23T02:11:18;10.50;99.90
9776;DHT22;4927;52.472;13.108;2023-03-23T02:12:19;10.60;99.90
9776;DHT22;4927;52.472;13.108;2023-03-23T02:13:21;10.60;99.90
9776;DHT22;4927;52.472;13.108;2023-03-23T02:14:23;10.60;99.90
9776;DHT22;4927;52.472;13.108;2023-03-23T02:15:29;10.60;99.90
9776;DHT22;4927;52.472;13.108;2023-03-23T02:16:45;10.60;99.90
9776;DHT22;4927;52.472;13.108;2023-03-23T02:17:57;10.60;99.90
9776;DHT22;4927;52.472;13.108;2023-03-23T02:20:50;10.70;99.90
9776;DHT22;4927;52.472;13.108;2023-03-23T02:21:56;10.70;99.90
9776;DHT22;4927;52.472;13.108;2023-03-23T02:23:27;10.70;99.90
9776;DHT22;4927;52.472;13.108;2023-03-23T02:24:36;10.70;99.90
9776;DHT22;4927;52.472;13.108;2023-03-23T02:27:08;10.70;99.90
9776;DHT22;4927;52.472;13.108;2023-03-23T02:28:22;10.80;99.90
9776;DHT22;4927;52.472;13.108;2023-03-23T02:29:43;10.80;99.90
9776;DHT22;4927;52.472;13.108;2023-03-23T02:33:40;10.80;99.90
9776;DHT22;4927;52.472;13.108;2023-03-23T02:34:44;10.80;99.90
9776;DHT22;4927;52.472;13.108;2023-03-23T02:35:47;10.80;99.90
9776;DHT22;4927;52.472;13.108;2023-03-23T02:37:11;10.80;99.90
9776;DHT22;4927;52.472;13.108;2023-03-23T02:38:14;10.80;99.90
9776;DHT22;4927;52.472;13.108;2023-03-23T02:39:23;10.80;99.90
9776;DHT22;4927;52.472;13.108;2023-03-23T02:40:25;9.70;99.90
9776;DHT22;4927;52.472;13.108;2023-03-23T02:41:28;10.80;99.90
9776;DHT22;4927;52.472;13.108;2023-03-23T02:42:29;10.80;99.90
9776;DHT22;4927;52.472;13.108;2023-03-23T02:43:33;10.80;99.90
9776;DHT22;4927;52.472;13.108;2023-03-23T02:44:38;10.80;99.90
9776;DHT22;4927;52.472;13.108;2023-03-23T02:45:35;10.80;99.90
9776;DHT22;4927;52.472;13.108;2023-03-23T02:46:37;10.80;99.90
9776;DHT22;4927;52.472;13.108;2023-03-23T02:47:39;10.80;99.90
9776;DHT22;4927;52.472;13.108;2023-03-23T02:48:41;10.80;99.90
9776;DHT22;4927;52.472;13.108;2023-03-23T02:49:42;10.70;99.90
9776;DHT22;4927;52.472;13.108;2023-03-23T02:50:45;10.80;99.90
9776;DHT22;4927;52.472;13.108;2023-03-23T02:51:46;10.80;99.90
9776;DHT22;4927;52.472;13.108;2023-03-23T02:52:47;10.80;99.90
9776;DHT22;4927;52.472;13.108;2023-03-23T02:53:49;10.80;99.90
9776;DHT22;4927;52.472;13.108;2023-03-23T02:54:51;10.80;99.90
9776;DHT22;4927;52.472;13.108;2023-03-23T02:55:53;10.70;99.90
9776;DHT22;4927;52.472;13.108;2023-03-23T02:56:54;10.80;99.90
9776;DHT22;4927;52.472;13.108;2023-03-23T02:57:56;10.80;99.90
9776;DHT22;4927;52.472;13.108;2023-03-23T02:58:58;10.80;99.90
9776;DHT22;4927;52.472;13.108;2023-03-23T03:00:00;10.80;99.90
9776;DHT22;4927;52.472;13.108;2023-03-23T03:01:47;10.80;99.90
9776;DHT22;4927;52.472;13.108;2023-03-23T03:02:46;10.80;99.90
9776;DHT22;4927;52.472;13.108;2023-03-23T03:03:48;10.80;99.90
9776;DHT22;4927;52.472;13.108;2023-03-23T03:05:00;10.80;99.90
9776;DHT22;4927;52.472;13.108;2023-03-23T03:06:18;10.80;99.90
9776;DHT22;4927;52.472;13.108;2023-03-23T03:07:24;10.80;99.90
9776;DHT22;4927;52.472;13.108;2023-03-23T03:08:45;10.80;99.90
9776;DHT22;4927;52.472;13.108;2023-03-23T03:09:59;10.80;99.90
9776;DHT22;4927;52.472;13.108;2023-03-23T03:11:03;10.80;99.90
9776;DHT22;4927;52.472;13.108;2023-03-23T03:12:08;10.80;99.90
9776;DHT22;4927;52.472;13.108;2023-03-23T03:13:41;10.90;99.90
9776;DHT22;4927;52.472;13.108;2023-03-23T03:16:15;10.90;99.90
9776;DHT22;4927;52.472;13.108;2023-03-23T03:17:21;10.90;99.90
9776;DHT22;4927;52.472;13.108;2023-03-23T03:18:22;10.90;99.90
9776;DHT22;4927;52.472;13.108;2023-03-23T03:19:34;10.90;99.90
9776;DHT22;4927;52.472;13.108;2023-03-23T03:20:35;10.90;99.90
9776;DHT22;4927;52.472;13.108;2023-03-23T03:21:38;10.90;99.90
9776;DHT22;4927;52.472;13.108;2023-03-23T03:22:40;10.90;99.90
9776;DHT22;4927;52.472;13.108;2023-03-23T03:23:42;10.90;99.90
9776;DHT22;4927;52.472;13.108;2023-03-23T03:24:43;11.00;99.90
9776;DHT22;4927;52.472;13.108;2023-03-23T03:25:45;11.00;99.90
9776;DHT22;4927;52.472;13.108;2023-03-23T03:26:50;11.00;99.90
9776;DHT22;4927;52.472;13.108;2023-03-23T03:27:51;11.00;99.90
9776;DHT22;4927;52.472;13.108;2023-03-23T03:28:53;11.00;99.90
9776;DHT22;4927;52.472;13.108;2023-03-23T03:29:56;11.00;99.90
9776;DHT22;4927;52.472;13.108;2023-03-23T03:30:57;11.00;99.90
9776;DHT22;4927;52.472;13.108;2023-03-23T03:31:58;11.00;99.90
9776;DHT22;4927;52.472;13.108;2023-03-23T03:33:01;11.00;99.90
9776;DHT22;4927;52.472;13.108;2023-03-23T03:34:03;11.00;99.90
9776;DHT22;4927;52.472;13.108;2023-03-23T03:35:05;11.00;99.90
9776;DHT22;4927;52.472;13.108;2023-03-23T03:36:07;11.00;99.90
9776;DHT22;4927;52.472;13.108;2023-03-23T03:37:09;11.00;99.90
9776;DHT22;4927;52.472;13.108;2023-03-23T03:38:11;11.00;99.90
9776;DHT22;4927;52.472;13.108;2023-03-23T03:39:13;10.90;99.90
9776;DHT22;4927;52.472;13.108;2023-03-23T03:40:16;10.90;99.90
9776;DHT22;4927;52.472;13.108;2023-03-23T03:41:17;10.90;99.90
9776;DHT22;4927;52.472;13.108;2023-03-23T03:42:19;10.90;99.90
9776;DHT22;4927;52.472;13.108;2023-03-23T03:43:20;10.90;99.90
9776;DHT22;4927;52.472;13.108;2023-03-23T03:44:22;10.90;99.90
9776;DHT22;4927;52.472;13.108;2023-03-23T03:45:24;10.90;99.90
9776;DHT22;4927;52.472;13.108;2023-03-23T03:46:26;10.90;99.90
9776;DHT22;4927;52.472;13.108;2023-03-23T03:47:28;10.90;99.90
9776;DHT22;4927;52.472;13.108;2023-03-23T03:48:29;10.90;99.90
9776;DHT22;4927;52.472;13.108;2023-03-23T03:49:32;10.90;99.90
9776;DHT22;4927;52.472;13.108;2023-03-23T03:50:34;10.90;99.90
9776;DHT22;4927;52.472;13.108;2023-03-23T03:51:36;10.90;99.90
9776;DHT22;4927;52.472;13.108;2023-03-23T03:52:39;10.90;99.90
9776;DHT22;4927;52.472;13.108;2023-03-23T03:53:40;10.90;99.90
9776;DHT22;4927;52.472;13.108;2023-03-23T03:54:43;10.90;99.90
9776;DHT22;4927;52.472;13.108;2023-03-23T03:55:44;10.90;99.90
9776;DHT22;4927;52.472;13.108;2023-03-23T03:56:47;10.80;99.90
9776;DHT22;4927;52.472;13.108;2023-03-23T03:57:49;10.80;99.90
9776;DHT22;4927;52.472;13.108;2023-03-23T03:58:51;10.80;99.90
9776;DHT22;4927;52.472;13.108;2023-03-23T03:59:53;10.80;99.90
9776;DHT22;4927;52.472;13.108;2023-03-23T04:00:55;10.80;99.90
9776;DHT22;4927;52.472;13.108;2023-03-23T04:01:57;10.80;99.90
9776;DHT22;4927;52.472;13.108;2023-03-23T04:02:59;10.80;99.90
9776;DHT22;4927;52.472;13.108;2023-03-23T04:04:01;10.80;99.90
9776;DHT22;4927;52.472;13.108;2023-03-23T04:05:04;10.80;99.90
9776;DHT22;4927;52.472;13.108;2023-03-23T04:06:06;10.80;99.90
9776;DHT22;4927;52.472;13.108;2023-03-23T04:07:09;10.70;99.90
9776;DHT22;4927;52.472;13.108;2023-03-23T04:08:12;10.70;99.90
9776;DHT22;4927;52.472;13.108;2023-03-23T04:09:14;10.70;99.90
9776;DHT22;4927;52.472;13.108;2023-03-23T04:10:16;10.70;99.90
9776;DHT22;4927;52.472;13.108;2023-03-23T04:11:18;10.70;99.90
9776;DHT22;4927;52.472;13.108;2023-03-23T04:12:20;10.70;99.90
9776;DHT22;4927;52.472;13.108;2023-03-23T04:13:22;10.70;99.90
9776;DHT22;4927;52.472;13.108;2023-03-23T04:14:24;10.60;99.90
9776;DHT22;4927;52.472;13.108;2023-03-23T04:15:26;10.60;99.90
9776;DHT22;4927;52.472;13.108;2023-03-23T04:16:35;10.60;99.90
9776;DHT22;4927;52.472;13.108;2023-03-23T04:17:37;10.60;99.90
9776;DHT22;4927;52.472;13.108;2023-03-23T04:18:39;10.60;99.90
9776;DHT22;4927;52.472;13.108;2023-03-23T04:19:40;10.60;99.90
9776;DHT22;4927;52.472;13.108;2023-03-23T04:20:43;10.60;99.90
9776;DHT22;4927;52.472;13.108;2023-03-23T04:21:44;10.60;99.90
9776;DHT22;4927;52.472;13.108;2023-03-23T04:22:46;10.60;99.90
9776;DHT22;4927;52.472;13.108;2023-03-23T04:23:49;10.60;99.90
9776;DHT22;4927;52.472;13.108;2023-03-23T04:24:50;10.50;99.90
9776;DHT22;4927;52.472;13.108;2023-03-23T04:25:52;10.50;99.90
9776;DHT22;4927;52.472;13.108;2023-03-23T04:26:54;10.50;99.90
9776;DHT22;4927;52.472;13.108;2023-03-23T04:27:55;10.60;99.90
9776;DHT22;4927;52.472;13.108;2023-03-23T04:28:57;10.50;99.90
9776;DHT22;4927;52.472;13.108;2023-03-23T04:29:59;10.50;99.90
9776;DHT22;4927;52.472;13.108;2023-03-23T04:31:00;10.50;99.90
9776;DHT22;4927;52.472;13.108;2023-03-23T04:32:02;10.50;99.90
9776;DHT22;4927;52.472;13.108;2023-03-23T04:33:04;10.50;99.90
9776;DHT22;4927;52.472;13.108;2023-03-23T04:34:06;10.50;99.90
9776;DHT22;4927;52.472;13.108;2023-03-23T04:35:09;10.50;99.90
9776;DHT22;4927;52.472;13.108;2023-03-23T04:36:09;10.50;99.90
9776;DHT22;4927;52.472;13.108;2023-03-23T04:37:11;10.50;99.90
9776;DHT22;4927;52.472;13.108;2023-03-23T04:38:14;10.50;99.90
9776;DHT22;4927;52.472;13.108;2023-03-23T04:39:16;10.50;99.90
9776;DHT22;4927;52.472;13.108;2023-03-23T04:40:18;10.50;99.90
9776;DHT22;4927;52.472;13.108;2023-03-23T04:41:20;10.50;99.90
9776;DHT22;4927;52.472;13.108;2023-03-23T04:42:30;10.50;99.90
9776;DHT22;4927;52.472;13.108;2023-03-23T04:43:31;10.50;99.90
9776;DHT22;4927;52.472;13.108;2023-03-23T04:44:33;10.50;99.90
9776;DHT22;4927;52.472;13.108;2023-03-23T04:45:35;10.50;99.90
9776;DHT22;4927;52.472;13.108;2023-03-23T04:46:37;10.40;99.90
9776;DHT22;4927;52.472;13.108;2023-03-23T04:47:38;10.50;99.90
9776;DHT22;4927;52.472;13.108;2023-03-23T04:48:40;10.40;99.90
9776;DHT22;4927;52.472;13.108;2023-03-23T04:49:41;10.40;99.90
9776;DHT22;4927;52.472;13.108;2023-03-23T04:50:43;10.40;99.90
9776;DHT22;4927;52.472;13.108;2023-03-23T04:51:46;10.40;99.90
9776;DHT22;4927;52.472;13.108;2023-03-23T04:52:47;10.40;99.90
9776;DHT22;4927;52.472;13.108;2023-03-23T04:53:49;10.40;99.90
9776;DHT22;4927;52.472;13.108;2023-03-23T04:54:51;10.40;99.90
9776;DHT22;4927;52.472;13.108;2023-03-23T04:55:53;10.40;99.90
9776;DHT22;4927;52.472;13.108;2023-03-23T04:56:54;10.40;99.90
9776;DHT22;4927;52.472;13.108;2023-03-23T04:57:57;10.40;99.90
9776;DHT22;4927;52.472;13.108;2023-03-23T04:58:58;10.40;99.90
9776;DHT22;4927;52.472;13.108;2023-03-23T05:00:01;10.40;99.90
9776;DHT22;4927;52.472;13.108;2023-03-23T05:01:02;10.40;99.90
9776;DHT22;4927;52.472;13.108;2023-03-23T05:02:04;10.40;99.90
9776;DHT22;4927;52.472;13.108;2023-03-23T05:03:05;10.40;99.90
9776;DHT22;4927;52.472;13.108;2023-03-23T05:04:08;10.40;99.90
9776;DHT22;4927;52.472;13.108;2023-03-23T05:05:11;10.40;99.90
9776;DHT22;4927;52.472;13.108;2023-03-23T05:06:11;10.40;99.90
9776;DHT22;4927;52.472;13.108;2023-03-23T05:07:14;10.40;99.90
9776;DHT22;4927;52.472;13.108;2023-03-23T05:08:16;10.40;99.90
9776;DHT22;4927;52.472;13.108;2023-03-23T05:09:18;10.40;99.90
9776;DHT22;4927;52.472;13.108;2023-03-23T05:10:21;10.40;99.90
9776;DHT22;4927;52.472;13.108;2023-03-23T05:11:23;10.40;99.90
9776;DHT22;4927;52.472;13.108;2023-03-23T05:12:24;10.40;99.90
9776;DHT22;4927;52.472;13.108;2023-03-23T05:13:27;10.40;99.90
9776;DHT22;4927;52.472;13.108;2023-03-23T05:14:28;10.40;99.90
9776;DHT22;4927;52.472;13.108;2023-03-23T05:15:30;10.40;99.90
9776;DHT22;4927;52.472;13.108;2023-03-23T05:16:32;10.40;99.90
9776;DHT22;4927;52.472;13.108;2023-03-23T05:17:33;10.30;99.90
9776;DHT22;4927;52.472;13.108;2023-03-23T05:18:36;10.30;99.90
9776;DHT22;4927;52.472;13.108;2023-03-23T05:19:37;10.30;99.90
9776;DHT22;4927;52.472;13.108;2023-03-23T05:20:39;10.30;99.90
9776;DHT22;4927;52.472;13.108;2023-03-23T05:21:41;10.30;99.90
9776;DHT22;4927;52.472;13.108;2023-03-23T05:22:43;10.30;99.90
9776;DHT22;4927;52.472;13.108;2023-03-23T05:23:46;10.30;99.90
9776;DHT22;4927;52.472;13.108;2023-03-23T05:24:47;10.30;99.90
9776;DHT22;4927;52.472;13.108;2023-03-23T05:25:53;10.30;99.90
9776;DHT22;4927;52.472;13.108;2023-03-23T05:26:55;10.30;99.90
9776;DHT22;4927;52.472;13.108;2023-03-23T05:28:04;10.20;99.90
9776;DHT22;4927;52.472;13.108;2023-03-23T05:29:05;10.20;99.90
9776;DHT22;4927;52.472;13.108;2023-03-23T05:30:08;10.30;99.90
9776;DHT22;4927;52.472;13.108;2023-03-23T05:31:10;10.20;99.90
9776;DHT22;4927;52.472;13.108;2023-03-23T05:32:12;10.20;99.90
9776;DHT22;4927;52.472;13.108;2023-03-23T05:33:14;10.20;99.90
9776;DHT22;4927;52.472;13.108;2023-03-23T05:34:16;10.20;99.90
9776;DHT22;4927;52.472;13.108;2023-03-23T05:35:19;10.30;99.90
9776;DHT22;4927;52.472;13.108;2023-03-23T05:36:21;10.30;99.90
9776;DHT22;4927;52.472;13.108;2023-03-23T05:37:23;10.30;99.90
9776;DHT22;4927;52.472;13.108;2023-03-23T05:38:24;10.30;99.90
9776;DHT22;4927;52.472;13.108;2023-03-23T05:39:26;10.20;99.90
9776;DHT22;4927;52.472;13.108;2023-03-23T05:40:27;10.30;99.90
9776;DHT22;4927;52.472;13.108;2023-03-23T05:41:30;10.30;99.90
9776;DHT22;4927;52.472;13.108;2023-03-23T05:42:33;10.20;99.90
9776;DHT22;4927;52.472;13.108;2023-03-23T05:43:34;10.20;99.90
9776;DHT22;4927;52.472;13.108;2023-03-23T05:44:36;10.20;99.90
9776;DHT22;4927;52.472;13.108;2023-03-23T05:45:37;10.20;99.90
9776;DHT22;4927;52.472;13.108;2023-03-23T05:46:39;10.20;99.90
9776;DHT22;4927;52.472;13.108;2023-03-23T05:47:41;10.20;99.90
9776;DHT22;4927;52.472;13.108;2023-03-23T05:48:42;10.20;99.90
9776;DHT22;4927;52.472;13.108;2023-03-23T05:49:44;10.20;99.90
9776;DHT22;4927;52.472;13.108;2023-03-23T05:50:46;10.20;99.90
9776;DHT22;4927;52.472;13.108;2023-03-23T05:51:47;10.20;99.90
9776;DHT22;4927;52.472;13.108;2023-03-23T05:52:50;10.20;99.90
9776;DHT22;4927;52.472;13.108;2023-03-23T05:53:52;10.20;99.90
9776;DHT22;4927;52.472;13.108;2023-03-23T05:54:53;10.20;99.90
9776;DHT22;4927;52.472;13.108;2023-03-23T05:55:58;10.20;99.90
9776;DHT22;4927;52.472;13.108;2023-03-23T05:57:00;10.20;99.90
9776;DHT22;4927;52.472;13.108;2023-03-23T05:58:02;10.20;99.90
9776;DHT22;4927;52.472;13.108;2023-03-23T05:59:04;10.20;99.90
9776;DHT22;4927;52.472;13.108;2023-03-23T06:00:06;10.10;99.90
9776;DHT22;4927;52.472;13.108;2023-03-23T06:01:14;10.10;99.90
9776;DHT22;4927;52.472;13.108;2023-03-23T06:02:16;10.10;99.90
9776;DHT22;4927;52.472;13.108;2023-03-23T06:03:18;10.10;99.90
9776;DHT22;4927;52.472;13.108;2023-03-23T06:04:19;10.10;99.90
9776;DHT22;4927;52.472;13.108;2023-03-23T06:05:21;10.10;99.90
9776;DHT22;4927;52.472;13.108;2023-03-23T06:06:23;10.10;99.90
9776;DHT22;4927;52.472;13.108;2023-03-23T06:07:24;10.10;99.90
9776;DHT22;4927;52.472;13.108;2023-03-23T06:08:26;10.10;99.90
9776;DHT22;4927;52.472;13.108;2023-03-23T06:09:28;10.10;99.90
9776;DHT22;4927;52.472;13.108;2023-03-23T06:10:30;10.10;99.90
9776;DHT22;4927;52.472;13.108;2023-03-23T06:11:32;10.10;99.90
9776;DHT22;4927;52.472;13.108;2023-03-23T06:12:34;10.10;99.90
9776;DHT22;4927;52.472;13.108;2023-03-23T06:13:36;10.10;99.90
9776;DHT22;4927;52.472;13.108;2023-03-23T06:14:38;10.10;99.90
9776;DHT22;4927;52.472;13.108;2023-03-23T06:15:40;10.10;99.90
9776;DHT22;4927;52.472;13.108;2023-03-23T06:16:41;10.10;99.90
9776;DHT22;4927;52.472;13.108;2023-03-23T06:17:43;10.10;99.90
9776;DHT22;4927;52.472;13.108;2023-03-23T06:18:45;10.10;99.90
9776;DHT22;4927;52.472;13.108;2023-03-23T06:19:46;10.10;99.90
9776;DHT22;4927;52.472;13.108;2023-03-23T06:20:49;10.10;99.90
9776;DHT22;4927;52.472;13.108;2023-03-23T06:21:57;10.10;99.90
9776;DHT22;4927;52.472;13.108;2023-03-23T06:22:59;10.10;99.90
9776;DHT22;4927;52.472;13.108;2023-03-23T06:24:01;10.10;99.90
9776;DHT22;4927;52.472;13.108;2023-03-23T06:25:04;10.10;99.90
9776;DHT22;4927;52.472;13.108;2023-03-23T06:26:07;10.10;99.90
9776;DHT22;4927;52.472;13.108;2023-03-23T06:27:08;10.10;99.90
9776;DHT22;4927;52.472;13.108;2023-03-23T06:28:10;10.10;99.90
9776;DHT22;4927;52.472;13.108;2023-03-23T06:29:11;10.10;99.90
9776;DHT22;4927;52.472;13.108;2023-03-23T06:30:13;10.10;99.90
9776;DHT22;4927;52.472;13.108;2023-03-23T06:31:15;10.10;99.90
9776;DHT22;4927;52.472;13.108;2023-03-23T06:32:16;10.10;99.90
9776;DHT22;4927;52.472;13.108;2023-03-23T06:33:19;10.20;99.90
9776;DHT22;4927;52.472;13.108;2023-03-23T06:34:20;10.10;99.90
9776;DHT22;4927;52.472;13.108;2023-03-23T06:35:23;10.20;99.90
9776;DHT22;4927;52.472;13.108;2023-03-23T06:36:25;10.20;99.90
9776;DHT22;4927;52.472;13.108;2023-03-23T06:37:26;10.10;99.90
9776;DHT22;4927;52.472;13.108;2023-03-23T06:38:28;10.20;99.90
9776;DHT22;4927;52.472;13.108;2023-03-23T06:39:29;10.20;99.90
9776;DHT22;4927;52.472;13.108;2023-03-23T06:40:31;10.20;99.90
9776;DHT22;4927;52.472;13.108;2023-03-23T06:41:33;10.20;99.90
9776;DHT22;4927;52.472;13.108;2023-03-23T06:42:36;10.20;99.90
9776;DHT22;4927;52.472;13.108;2023-03-23T06:43:38;10.20;99.90
9776;DHT22;4927;52.472;13.108;2023-03-23T06:44:40;10.20;99.90
9776;DHT22;4927;52.472;13.108;2023-03-23T06:45:42;10.20;99.90
9776;DHT22;4927;52.472;13.108;2023-03-23T06:46:51;10.20;99.90
9776;DHT22;4927;52.472;13.108;2023-03-23T06:47:53;10.20;99.90
9776;DHT22;4927;52.472;13.108;2023-03-23T06:48:55;10.20;99.90
9776;DHT22;4927;52.472;13.108;2023-03-23T06:49:57;10.20;99.90
9776;DHT22;4927;52.472;13.108;2023-03-23T06:50:59;10.30;99.90
9776;DHT22;4927;52.472;13.108;2023-03-23T06:52:00;10.20;99.90
9776;DHT22;4927;52.472;13.108;2023-03-23T06:53:02;10.20;99.90